createdAt,value
2022-10-28T00:09:26.406Z,19.1
2022-10-28T00:19:26.973Z,19.3
2022-10-28T00:29:34.041Z,19.4
2022-10-28T00:39:27.288Z,19.4
2022-10-28T00:49:28.121Z,19.1
2022-10-28T00:59:28.248Z,19.2
2022-10-28T01:19:28.614Z,18.4
2022-10-28T01:39:30.304Z,17.9
2022-10-28T01:49:31.128Z,17.6
2022-10-28T01:59:31.245Z,17.6
2022-10-28T02:09:32.076Z,18.6
2022-10-28T02:19:33.005Z,19.5
2022-10-28T02:39:33.848Z,19.9
2022-10-28T02:49:33.897Z,20
2022-10-28T02:59:34.407Z,20.1
2022-10-28T03:09:35.249Z,20
2022-10-28T03:19:35.604Z,20
2022-10-28T03:39:36.890Z,19.7
2022-10-28T03:59:37.852Z,19.5
2022-10-28T04:19:38.613Z,19.5
2022-10-28T04:49:40.441Z,19
2022-10-28T04:59:40.954Z,18.6
2022-10-28T05:09:41.797Z,18.4
2022-10-28T05:19:42.822Z,18.4
2022-10-28T05:29:43.092Z,18.9
2022-10-28T05:39:50.149Z,18.7
2022-10-28T05:49:43.650Z,18.8
2022-10-28T05:59:43.772Z,18.6
2022-10-28T06:09:51.444Z,18.7
2022-10-28T06:19:50.693Z,18.7
2022-10-28T06:29:44.395Z,18.9
2022-10-28T06:39:44.640Z,19
2022-10-28T06:49:46.721Z,19.1
2022-10-28T06:59:46.974Z,19.2
2022-10-28T07:09:47.171Z,19.1
2022-10-28T07:19:48.205Z,19.2
2022-10-28T07:29:48.733Z,19.2
2022-10-28T07:39:48.872Z,19.4
2022-10-28T07:49:48.946Z,19.7
2022-10-28T07:59:49.310Z,20.2
2022-10-28T08:09:50.178Z,20.4
2022-10-28T08:19:51.158Z,20.2
2022-10-28T08:29:51.619Z,20.3
2022-10-28T09:09:54.051Z,21.7
2022-10-28T09:19:54.393Z,22.4
2022-10-28T09:29:54.983Z,23.4
2022-10-28T09:39:55.647Z,23.3
2022-10-28T09:40:01.903Z,23.4
2022-10-28T09:50:02.256Z,23.8
2022-10-28T10:00:03.060Z,24.2
2022-10-28T10:20:03.911Z,24.1
2022-10-28T10:30:04.775Z,23.9
2022-10-28T10:40:05.485Z,23.8
2022-10-28T10:50:06.099Z,23.9
2022-10-28T11:10:06.979Z,24.5
2022-10-28T11:30:07.741Z,24.5
2022-10-28T11:40:08.444Z,24.8
2022-10-28T12:00:09.979Z,25.2
2022-10-28T12:10:10.988Z,25
2022-10-28T12:20:11.907Z,26
2022-10-28T12:30:12.333Z,26
2022-10-28T12:40:12.734Z,25.9
2022-10-28T12:50:12.764Z,26
2022-10-28T13:10:14.104Z,25.9
2022-10-28T13:20:14.262Z,25.7
2022-10-28T13:30:15.018Z,25.6
2022-10-28T13:40:15.142Z,25.3
2022-10-28T13:50:15.516Z,25.2
2022-10-28T14:00:15.605Z,25
2022-10-28T14:10:20.136Z,25.1
2022-10-28T14:20:16.418Z,24.9
2022-10-28T14:30:16.424Z,24.6
2022-10-28T14:40:17.096Z,24.6
2022-10-28T14:50:18.063Z,24.5
2022-10-28T15:10:19.382Z,23.9
2022-10-28T15:20:19.965Z,23.6
2022-10-28T15:30:27.195Z,23.4
2022-10-28T15:40:20.507Z,23.1
2022-10-28T15:50:20.800Z,22.9
2022-10-28T16:00:21.378Z,22.6
2022-10-28T16:10:21.747Z,22.6
2022-10-28T16:20:22.657Z,22.5
2022-10-28T16:30:23.638Z,22.1
2022-10-28T16:40:45.997Z,21.9
2022-10-28T16:50:24.926Z,21.6
2022-10-28T17:00:25.146Z,21.5
2022-10-28T17:10:25.537Z,21.4
2022-10-28T17:30:26.068Z,21.1
2022-10-28T17:40:26.998Z,21
2022-10-28T17:50:27.603Z,20.8
2022-10-28T18:10:28.487Z,20.1
2022-10-28T18:20:29.071Z,19.9
2022-10-28T18:30:29.864Z,19.7
2022-10-28T18:40:30.025Z,19.5
2022-10-28T18:50:30.664Z,19.4
2022-10-28T19:00:30.999Z,19.4
2022-10-28T19:10:31.240Z,19.5
2022-10-28T19:20:32.117Z,19.5
2022-10-28T19:30:33.091Z,19.4
2022-10-28T19:50:33.584Z,18.9
2022-10-28T20:00:34.506Z,18.6
2022-10-28T20:20:35.414Z,18.5
2022-10-28T20:40:36.403Z,18.3
2022-10-28T21:00:37.611Z,18
2022-10-28T21:10:37.736Z,17.8
2022-10-28T21:30:38.453Z,17.4
2022-10-28T21:40:39.043Z,17.1
2022-10-28T21:50:39.594Z,17
2022-10-28T22:00:46.971Z,16.9
2022-10-28T22:20:42.496Z,17.4
2022-10-28T22:30:42.747Z,17.3
2022-10-28T22:40:42.340Z,17.1
2022-10-28T23:10:44.159Z,16.6
2022-10-28T23:20:45.200Z,16.5
2022-10-28T23:30:45.943Z,16.3
2022-10-28T23:40:46.078Z,16.3
2022-10-28T23:50:46.098Z,16.2
